Time;durP1;ratioP1;P1;durP2;ratioP2;P2;SDS_P1;SDS_P2;PMS_P1;PMS_P2;Temp;Humidity;BMP_temperature;BMP_pressure;BME280_temperature;BME280_humidity;BME280_pressure;Samples;Min_cycle;Max_cycle;Signal;HPM_P1;HPM_P2
2021/09/14 00:00:31;;;;;;;1.67;1.57;;;;;;;22.52;88.93;97535.75;4954605;28;20283;-66
2021/09/14 00:02:58;;;;;;;1.50;1.40;;;;;;;22.52;88.89;97543.44;4957054;28;20207;-64
2021/09/14 00:05:25;;;;;;;1.30;1.30;;;;;;;22.53;89.21;97534.09;4954213;28;20658;-65
2021/09/14 00:07:51;;;;;;;1.70;1.60;;;;;;;22.52;88.87;97527.19;4955300;28;20267;-65
2021/09/14 00:10:18;;;;;;;1.60;1.50;;;;;;;22.52;89.04;97528.09;4958616;28;20269;-65
2021/09/14 00:12:45;;;;;;;1.70;1.60;;;;;;;22.54;88.93;97536.69;4961269;28;20214;-65
2021/09/14 00:15:11;;;;;;;1.50;1.40;;;;;;;22.52;88.87;97530.66;4951814;28;20299;-65
2021/09/14 00:17:38;;;;;;;1.50;1.40;;;;;;;22.53;88.95;97532.38;4964090;28;20236;-65
2021/09/14 00:20:05;;;;;;;1.70;1.60;;;;;;;22.53;88.85;97534.94;4953774;28;20282;-65
2021/09/14 00:22:32;;;;;;;1.60;1.50;;;;;;;22.54;89.02;97535.81;4953829;28;20208;-65
2021/09/14 00:24:58;;;;;;;1.87;1.53;;;;;;;22.53;88.89;97534.09;4977921;28;20647;-66
2021/09/14 00:27:25;;;;;;;1.40;1.30;;;;;;;22.53;88.59;97542.59;4954643;28;20263;-65
2021/09/14 00:29:51;;;;;;;1.50;1.40;;;;;;;22.53;88.75;97528.97;4954248;28;20288;-65
2021/09/14 00:32:18;;;;;;;1.70;1.60;;;;;;;22.54;88.79;97538.38;4968685;28;20327;-66
2021/09/14 00:34:45;;;;;;;1.60;1.50;;;;;;;22.54;89.04;97538.38;4951100;28;20299;-66
2021/09/14 00:37:11;;;;;;;1.60;1.50;;;;;;;22.54;88.75;97533.25;4952348;28;20360;-65
2021/09/14 00:39:38;;;;;;;1.70;1.60;;;;;;;22.53;88.91;97534.09;4954214;28;20212;-65
2021/09/14 00:42:04;;;;;;;1.60;1.50;;;;;;;22.52;88.92;97532.31;4954262;28;20914;-66
2021/09/14 00:44:31;;;;;;;1.60;1.50;;;;;;;22.53;88.88;97531.53;4962390;28;20294;-66
2021/09/14 00:46:57;;;;;;;1.70;1.60;;;;;;;22.52;88.86;97533.19;4959820;28;20239;-65
2021/09/14 00:49:24;;;;;;;1.70;1.60;;;;;;;22.52;88.84;97527.19;4964569;28;20294;-63
2021/09/14 00:51:51;;;;;;;1.70;1.60;;;;;;;22.48;88.76;97521.13;4954697;28;20263;-66
2021/09/14 00:54:18;;;;;;;1.70;1.60;;;;;;;22.52;88.95;97519.53;4952477;28;20737;-65
2021/09/14 00:56:44;;;;;;;1.90;1.60;;;;;;;22.51;88.89;97516.13;4954794;28;20328;-65
2021/09/14 00:59:11;;;;;;;1.53;1.43;;;;;;;22.52;88.90;97519.53;4953793;28;20266;-65
2021/09/14 01:01:37;;;;;;;1.50;1.40;;;;;;;22.51;88.87;97513.56;4945476;28;20306;-65
2021/09/14 01:04:04;;;;;;;1.50;1.40;;;;;;;22.51;88.87;97516.13;4949854;28;20723;-65
2021/09/14 01:06:32;;;;;;;1.50;1.40;;;;;;;22.52;88.88;97512.72;4951636;28;20240;-65
2021/09/14 01:09:02;;;;;;;1.60;1.50;;;;;;;22.52;88.89;97515.28;4967141;28;20223;-66
2021/09/14 01:11:29;;;;;;;1.93;1.83;;;;;;;22.48;88.91;97502.31;4951974;28;20255;-65
2021/09/14 01:14:05;;;;;;;1.50;1.40;;;;;;;22.53;88.86;97513.59;4954011;28;20249;-66
2021/09/14 01:16:32;;;;;;;1.60;1.50;;;;;;;22.52;88.90;97504.16;4959566;28;20208;-65
2021/09/14 01:18:59;;;;;;;1.70;1.60;;;;;;;22.47;88.93;97492.91;4953617;28;20314;-66
2021/09/14 01:21:28;;;;;;;1.40;1.30;;;;;;;22.38;88.88;97488.41;4936151;29;20243;-66
2021/09/14 01:23:54;;;;;;;1.60;1.50;;;;;;;22.52;88.92;97509.28;4952538;28;20199;-65
2021/09/14 01:26:21;;;;;;;1.70;1.60;;;;;;;22.52;88.90;97510.16;4953181;28;20283;-65
2021/09/14 01:28:48;;;;;;;1.70;1.60;;;;;;;22.52;88.78;97516.97;4968355;28;20279;-65
2021/09/14 01:31:14;;;;;;;1.73;1.63;;;;;;;22.52;88.80;97512.72;4956909;28;20275;-65
2021/09/14 01:33:55;;;;;;;1.47;1.37;;;;;;;22.52;88.69;97509.28;4959998;28;20208;-65
2021/09/14 01:36:22;;;;;;;1.80;1.70;;;;;;;22.52;88.75;97512.72;4953325;28;20303;-66
2021/09/14 01:38:49;;;;;;;1.60;1.50;;;;;;;22.51;88.33;97505.88;4953743;28;20648;-65
2021/09/14 01:41:16;;;;;;;1.60;1.50;;;;;;;22.52;88.88;97502.47;4955937;28;20318;-65
2021/09/14 01:43:42;;;;;;;1.60;1.50;;;;;;;22.36;88.92;97477.28;4965140;28;20238;-65
2021/09/14 01:46:09;;;;;;;1.70;1.60;;;;;;;22.51;88.77;97497.31;4953031;28;20240;-65
2021/09/14 01:48:36;;;;;;;1.70;1.60;;;;;;;22.52;88.50;97506.72;4952540;28;20250;-65
2021/09/14 01:51:02;;;;;;;1.70;1.60;;;;;;;22.51;88.96;97505.00;4952599;28;20236;-66
2021/09/14 01:53:29;;;;;;;1.70;1.60;;;;;;;22.51;88.85;97499.88;4952803;28;20240;-66
2021/09/14 01:56:00;;;;;;;1.60;1.50;;;;;;;22.51;88.88;97503.31;4953090;28;20263;-65
2021/09/14 01:58:28;;;;;;;1.50;1.40;;;;;;;22.51;88.80;97505.00;4957564;28;20717;-65
2021/09/14 02:01:07;;;;;;;1.80;1.70;;;;;;;22.51;88.88;97502.44;4956820;28;20200;-65
2021/09/14 02:04:31;;;;;;;1.70;1.60;;;;;;;21.42;88.82;97310.19;4949408;28;20733;-65
2021/09/14 02:06:36;;;;;;;1.80;1.70;;;;;;;22.51;88.75;97503.31;4957743;28;20624;-65
2021/09/14 02:42:22;;;;;;;1.63;1.53;;;;;;;22.50;88.92;97506.69;4953315;28;20238;-65
2021/09/14 02:58:44;;;;;;;1.80;1.70;;;;;;;22.49;88.82;97501.47;4952092;28;20258;-65
2021/09/14 03:01:13;;;;;;;1.50;1.40;;;;;;;22.49;88.92;97504.03;4954581;28;20207;-65
2021/09/14 03:03:42;;;;;;;1.67;1.57;;;;;;;22.49;88.89;97504.03;4957983;28;20216;-65
2021/09/14 03:06:09;;;;;;;1.90;1.70;;;;;;;22.49;88.94;97507.47;4951464;28;20291;-66
2021/09/14 03:08:37;;;;;;;1.70;1.60;;;;;;;22.49;89.14;97501.47;4953361;28;20290;-65
2021/09/14 03:11:08;;;;;;;1.80;1.70;;;;;;;22.49;88.93;97507.47;4969822;28;20263;-65
2021/09/14 03:13:38;;;;;;;1.60;1.50;;;;;;;22.44;88.93;97488.56;4957659;28;20224;-66
2021/09/14 03:16:06;;;;;;;1.80;1.70;;;;;;;22.49;88.93;97502.34;4956700;28;20242;-66
2021/09/14 03:18:33;;;;;;;1.93;1.57;;;;;;;22.49;89.02;97493.78;4972919;28;20246;-65
2021/09/14 03:21:00;;;;;;;1.80;1.53;;;;;;;22.50;88.85;97490.44;4958493;28;20238;-66
2021/09/14 03:23:27;;;;;;;1.70;1.60;;;;;;;22.50;88.85;97491.31;4957160;28;20244;-65
2021/09/14 03:25:53;;;;;;;1.80;1.70;;;;;;;22.51;88.88;97494.75;4959226;28;20683;-66
2021/09/14 03:28:20;;;;;;;1.60;1.50;;;;;;;22.51;89.13;97494.75;4957186;28;20224;-65
2021/09/14 03:30:48;;;;;;;1.80;1.70;;;;;;;22.51;88.99;97492.19;4958645;28;20291;-66
2021/09/14 03:33:15;;;;;;;1.70;1.60;;;;;;;22.50;88.80;97493.88;4966641;28;20235;-66
2021/09/14 03:35:42;;;;;;;1.70;1.60;;;;;;;22.50;88.89;97486.19;4958339;28;20246;-66
2021/09/14 03:38:08;;;;;;;1.60;1.50;;;;;;;22.51;88.77;97482.81;4956828;28;20664;-66
2021/09/14 03:40:35;;;;;;;1.70;1.60;;;;;;;22.52;88.80;97488.78;4957397;28;20291;-66
2021/09/14 03:43:02;;;;;;;1.70;1.60;;;;;;;22.49;88.86;97474.19;4967447;28;20324;-66
2021/09/14 03:45:28;;;;;;;1.60;1.50;;;;;;;22.51;88.98;97479.38;4957206;28;20287;-65
2021/09/14 03:47:55;;;;;;;1.57;1.47;;;;;;;22.50;88.80;97483.63;4957989;28;20729;-66
2021/09/14 03:50:21;;;;;;;1.77;1.67;;;;;;;22.49;88.82;97479.31;4957539;28;20236;-66
2021/09/14 03:52:48;;;;;;;1.80;1.70;;;;;;;22.50;88.81;97475.94;4958002;28;20270;-64
2021/09/14 03:55:14;;;;;;;1.63;1.53;;;;;;;22.50;88.71;97477.63;4957077;28;20713;-66
2021/09/14 03:57:41;;;;;;;1.70;1.60;;;;;;;22.50;88.93;97478.50;4956998;28;20318;-66
2021/09/14 04:00:08;;;;;;;1.87;1.77;;;;;;;22.50;88.90;97472.50;4950861;28;20283;-66
2021/09/14 04:02:50;;;;;;;1.80;1.70;;;;;;;22.51;88.90;97474.25;4957395;28;20303;-65
2021/09/14 04:10:36;;;;;;;1.43;1.30;;;;;;;22.46;89.01;97469.00;4957365;28;20789;-65
2021/09/14 04:13:03;;;;;;;1.80;1.70;;;;;;;22.51;88.91;97479.38;4955556;28;20231;-66
2021/09/14 04:15:29;;;;;;;1.90;1.80;;;;;;;22.50;89.43;97481.06;4962842;28;20290;-66
2021/09/14 04:17:56;;;;;;;1.83;1.73;;;;;;;22.51;88.88;97476.81;4962035;28;20474;-66
2021/09/14 04:20:22;;;;;;;1.90;1.80;;;;;;;22.51;88.55;97479.38;4954485;28;20239;-66
2021/09/14 04:22:49;;;;;;;2.10;1.90;;;;;;;22.51;88.87;97485.38;4955310;28;20244;-65
2021/09/14 04:25:16;;;;;;;1.90;1.80;;;;;;;22.47;88.75;97480.09;4953472;28;20304;-66
2021/09/14 04:27:42;;;;;;;1.70;1.60;;;;;;;22.51;88.74;97489.63;4948739;28;20263;-66
2021/09/14 04:30:09;;;;;;;1.80;1.70;;;;;;;22.51;88.87;97495.63;4953636;28;20304;-66
2021/09/14 04:32:36;;;;;;;1.70;1.60;;;;;;;22.51;88.81;97484.50;4960099;28;20734;-66
2021/09/14 04:35:04;;;;;;;1.50;1.40;;;;;;;22.50;88.77;97487.88;4973264;28;20259;-65
2021/09/14 04:37:31;;;;;;;1.80;1.70;;;;;;;22.52;88.65;97496.47;4953508;28;20224;-66
2021/09/14 04:39:58;;;;;;;1.90;1.80;;;;;;;22.51;88.74;97493.06;4960953;28;20243;-66
2021/09/14 04:42:25;;;;;;;2.00;1.90;;;;;;;22.52;88.76;97496.47;4963283;28;20200;-66
2021/09/14 04:44:53;;;;;;;2.10;1.70;;;;;;;22.51;88.90;97494.75;4954984;28;20243;-66
2021/09/14 04:47:20;;;;;;;1.80;1.70;;;;;;;22.50;88.82;97488.75;4952904;28;20266;-65
2021/09/14 04:49:47;;;;;;;1.63;1.53;;;;;;;22.51;89.02;97502.44;4954527;28;20243;-65
2021/09/14 04:52:13;;;;;;;1.73;1.63;;;;;;;22.50;88.90;97499.00;4953180;28;20260;-66
2021/09/14 04:54:40;;;;;;;1.80;1.70;;;;;;;22.50;88.83;97498.13;4954273;28;20304;-66
2021/09/14 04:57:07;;;;;;;1.90;1.80;;;;;;;22.51;88.74;97497.31;4952856;28;20255;-66
2021/09/14 04:59:34;;;;;;;1.70;1.60;;;;;;;22.50;88.75;97491.31;4962382;28;20310;-66
2021/09/14 05:02:00;;;;;;;1.93;1.83;;;;;;;22.51;88.69;97493.06;4954014;28;20298;-66
2021/09/14 05:04:27;;;;;;;1.70;1.60;;;;;;;22.51;88.77;97500.75;4953009;28;20291;-66
2021/09/14 05:06:53;;;;;;;1.80;1.70;;;;;;;22.51;88.78;97503.31;4954429;28;20253;-66
2021/09/14 05:09:20;;;;;;;1.90;1.80;;;;;;;22.51;88.73;97500.75;4952901;28;20766;-66
2021/09/14 05:11:46;;;;;;;1.80;1.70;;;;;;;22.51;88.89;97495.63;4954227;28;20318;-66
2021/09/14 05:14:13;;;;;;;1.90;1.80;;;;;;;22.51;88.85;97498.19;4952962;28;20208;-66
2021/09/14 05:16:42;;;;;;;1.97;1.87;;;;;;;22.52;88.77;97493.91;4964040;28;20239;-65
2021/09/14 05:19:11;;;;;;;2.07;1.90;;;;;;;22.52;88.68;97494.78;4946286;28;20231;-66
2021/09/14 05:21:46;;;;;;;1.90;1.80;;;;;;;22.52;88.77;97502.47;4953377;28;20212;-65
2021/09/14 05:24:13;;;;;;;1.80;1.70;;;;;;;22.53;88.66;97496.50;4952916;28;20235;-66
2021/09/14 05:26:40;;;;;;;1.70;1.60;;;;;;;22.53;88.61;97495.66;4953767;28;20577;-65
2021/09/14 05:29:06;;;;;;;2.53;1.80;;;;;;;22.53;88.68;97499.06;4951298;28;20251;-65
2021/09/14 05:31:34;;;;;;;1.80;1.70;;;;;;;22.54;88.62;97497.38;4952247;28;20256;-66
2021/09/14 05:34:00;;;;;;;1.60;1.50;;;;;;;22.53;88.44;97498.22;4963241;28;20243;-66
2021/09/14 05:36:27;;;;;;;2.13;1.93;;;;;;;22.53;88.53;97499.06;4952866;28;20236;-66
2021/09/14 05:38:54;;;;;;;1.57;1.47;;;;;;;22.52;88.36;97499.91;4954039;28;20756;-65
2021/09/14 05:41:20;;;;;;;1.90;1.80;;;;;;;22.54;88.59;97505.06;4951934;28;20657;-66
2021/09/14 05:43:47;;;;;;;1.80;1.70;;;;;;;22.53;88.55;97505.91;4959411;28;20200;-66
2021/09/14 05:46:13;;;;;;;1.83;1.73;;;;;;;22.54;88.60;97507.63;4952017;28;20295;-66
2021/09/14 05:48:40;;;;;;;1.90;1.80;;;;;;;22.16;88.63;97442.63;5012081;23;20325;-72
2021/09/14 05:51:06;;;;;;;1.80;1.70;;;;;;;22.46;88.57;97493.72;4976912;28;20235;-70
2021/09/14 05:53:34;;;;;;;1.97;1.87;;;;;;;22.53;88.89;97509.31;4992589;28;20261;-71
2021/09/14 05:56:01;;;;;;;1.90;1.80;;;;;;;22.17;88.58;97446.91;4998914;28;20206;-71
2021/09/14 05:58:30;;;;;;;1.80;1.70;;;;;;;22.52;88.72;97499.91;4983492;28;20273;-71
2021/09/14 06:00:57;;;;;;;2.07;1.97;;;;;;;22.53;88.57;97508.47;5008087;28;20252;-71
2021/09/14 06:03:24;;;;;;;2.10;1.90;;;;;;;22.53;88.57;97500.78;5006372;28;20230;-72
2021/09/14 06:05:50;;;;;;;1.87;1.77;;;;;;;22.49;88.63;97498.91;5007859;28;20663;-71
2021/09/14 06:08:17;;;;;;;1.90;1.80;;;;;;;22.50;88.44;97505.78;4989988;28;20262;-71
2021/09/14 06:10:43;;;;;;;1.90;1.80;;;;;;;22.54;88.54;97505.06;5007006;28;20297;-71
2021/09/14 06:13:10;;;;;;;1.90;1.80;;;;;;;22.46;88.42;97496.28;5007941;28;20309;-70
2021/09/14 06:15:37;;;;;;;1.87;1.77;;;;;;;22.47;88.63;97492.91;5006371;28;20743;-70
2021/09/14 06:18:03;;;;;;;1.87;1.77;;;;;;;22.52;88.65;97499.91;4996485;28;20333;-71
2021/09/14 06:20:30;;;;;;;2.00;1.90;;;;;;;22.54;88.23;97505.06;5006360;28;20237;-72
2021/09/14 06:22:56;;;;;;;1.80;1.70;;;;;;;22.46;88.40;97494.59;5007793;28;20290;-71
2021/09/14 06:25:23;;;;;;;1.67;1.57;;;;;;;22.54;88.81;97516.19;5005806;28;20249;-71
2021/09/14 06:27:49;;;;;;;1.87;1.77;;;;;;;22.55;88.21;97514.47;5005927;28;20688;-72
2021/09/14 06:30:16;;;;;;;4.10;1.97;;;;;;;22.43;88.66;97497.09;5005747;28;20206;-71
2021/09/14 06:32:43;;;;;;;1.70;1.60;;;;;;;22.48;88.54;97504.88;4994694;28;20262;-71
2021/09/14 06:35:09;;;;;;;2.30;2.03;;;;;;;22.47;88.38;97503.16;4987070;28;20293;-71
2021/09/14 06:37:36;;;;;;;1.80;1.70;;;;;;;22.47;88.35;97511.69;4991482;28;20316;-73
2021/09/14 06:40:04;;;;;;;1.80;1.70;;;;;;;22.54;88.26;97523.88;5005792;28;20409;-71
2021/09/14 06:42:30;;;;;;;1.93;1.83;;;;;;;22.55;88.36;97527.28;5007312;28;20229;-73
2021/09/14 06:44:57;;;;;;;1.90;1.80;;;;;;;22.48;88.32;97505.75;5005281;28;20225;-72
2021/09/14 06:47:25;;;;;;;1.90;1.80;;;;;;;22.52;88.55;97519.53;5005162;28;20253;-71
2021/09/14 06:49:51;;;;;;;1.90;1.80;;;;;;;22.54;88.77;97523.88;5005137;28;20237;-68
2021/09/14 06:52:35;;;;;;;1.90;1.80;;;;;;;22.47;88.47;97508.28;5006466;28;20706;-71
2021/09/14 06:55:02;;;;;;;2.10;1.97;;;;;;;22.50;88.49;97511.78;5007462;28;20245;-71
2021/09/14 06:57:29;;;;;;;1.80;1.70;;;;;;;22.42;88.32;97497.91;5005173;28;20250;-70
2021/09/14 06:59:55;;;;;;;2.13;1.93;;;;;;;22.54;88.50;97523.00;4989285;28;20284;-72
2021/09/14 07:02:22;;;;;;;1.97;1.83;;;;;;;22.54;88.53;97516.19;5005684;28;20230;-70
2021/09/14 07:04:49;;;;;;;2.23;1.77;;;;;;;22.47;88.13;97514.25;5005217;28;20245;-73
2021/09/14 07:07:15;;;;;;;1.70;1.60;;;;;;;22.46;88.45;97512.53;5005519;28;20245;-71
2021/09/14 07:09:42;;;;;;;1.90;1.80;;;;;;;22.46;88.35;97504.84;4991625;28;20299;-73
2021/09/14 07:12:09;;;;;;;2.00;1.90;;;;;;;22.43;88.31;97503.88;4976193;28;20265;-71
2021/09/14 07:14:38;;;;;;;2.03;1.93;;;;;;;22.47;88.49;97506.56;4976078;28;20652;-74
2021/09/14 07:17:05;;;;;;;1.80;1.70;;;;;;;22.16;88.38;97457.09;5006533;28;20292;-73
2021/09/14 07:19:31;;;;;;;2.20;1.80;;;;;;;22.55;88.31;97517.03;5005448;28;20202;-73
2021/09/14 07:21:58;;;;;;;2.60;2.23;;;;;;;22.55;88.34;97520.47;5006982;28;20198;-71
2021/09/14 07:24:24;;;;;;;2.33;2.00;;;;;;;22.24;88.46;97464.16;5005643;28;20238;-72
2021/09/14 07:26:51;;;;;;;2.10;2.00;;;;;;;22.44;88.38;97492.84;5005045;28;20296;-71
2021/09/14 07:29:18;;;;;;;1.83;1.73;;;;;;;22.55;88.43;97514.47;5005763;28;20828;-71
2021/09/14 07:31:45;;;;;;;1.97;1.87;;;;;;;22.45;88.38;97499.69;5004865;28;20312;-71
2021/09/14 07:34:12;;;;;;;2.03;1.93;;;;;;;22.48;88.00;97502.31;4992069;28;20737;-71
2021/09/14 07:36:38;;;;;;;2.00;1.90;;;;;;;22.56;88.63;97523.91;5004953;28;20583;-73
2021/09/14 07:39:05;;;;;;;1.90;1.80;;;;;;;22.56;88.31;97522.19;5006245;28;20261;-71
2021/09/14 07:41:31;;;;;;;2.00;1.90;;;;;;;22.45;88.25;97499.69;5005805;28;20234;-70
2021/09/14 07:43:58;;;;;;;1.97;1.87;;;;;;;22.48;88.39;97504.88;4994246;28;20285;-70
2021/09/14 07:46:25;;;;;;;2.40;2.20;;;;;;;22.44;88.47;97500.53;5006454;28;20289;-70
2021/09/14 07:48:51;;;;;;;2.20;2.10;;;;;;;22.51;88.25;97517.81;5004352;28;20332;-69
2021/09/14 07:51:18;;;;;;;2.00;1.90;;;;;;;22.56;88.30;97523.91;5006698;28;20260;-71
2021/09/14 07:53:46;;;;;;;1.90;1.80;;;;;;;22.56;88.15;97522.19;5006240;28;20274;-70
2021/09/14 07:56:13;;;;;;;1.90;1.80;;;;;;;22.55;88.51;97525.59;5009715;28;20244;-70
2021/09/14 07:58:39;;;;;;;2.13;2.03;;;;;;;22.56;88.38;97529.88;5008213;28;20843;-69
2021/09/14 08:01:06;;;;;;;2.20;2.10;;;;;;;22.45;88.39;97512.50;5010032;28;20313;-72
2021/09/14 08:03:33;;;;;;;2.27;2.07;;;;;;;22.40;88.37;97501.25;5010115;28;20289;-71
2021/09/14 08:06:04;;;;;;;2.00;1.90;;;;;;;22.45;88.25;97513.38;4999606;28;20676;-69
2021/09/14 08:08:30;;;;;;;2.20;2.03;;;;;;;22.49;88.15;97514.28;5008840;28;20756;-69
2021/09/14 08:10:57;;;;;;;1.97;1.87;;;;;;;22.48;88.29;97523.69;5008717;28;20234;-70
2021/09/14 08:13:34;;;;;;;2.10;2.00;;;;;;;22.53;87.96;97528.97;4996301;28;20719;-73
2021/09/14 08:16:00;;;;;;;2.07;1.97;;;;;;;22.57;88.39;97533.31;5009872;28;20249;-69
2021/09/14 08:18:27;;;;;;;2.67;2.30;;;;;;;22.54;88.33;97528.13;5008188;28;20783;-70
2021/09/14 08:20:54;;;;;;;1.93;1.83;;;;;;;22.49;88.26;97527.09;5009812;28;20633;-69
2021/09/14 08:23:20;;;;;;;2.43;2.23;;;;;;;22.57;88.28;97533.31;5008513;28;20202;-71
2021/09/14 08:25:47;;;;;;;1.90;1.80;;;;;;;22.58;88.18;97537.59;5009575;28;20664;-70
2021/09/14 08:28:13;;;;;;;1.97;1.87;;;;;;;22.56;88.13;97529.88;5008240;28;20345;-71
2021/09/14 08:30:40;;;;;;;2.07;1.87;;;;;;;22.49;88.09;97519.41;5010139;28;20289;-69
2021/09/14 08:33:06;;;;;;;2.20;2.10;;;;;;;22.50;88.58;97518.59;5008286;28;20686;-69
2021/09/14 08:35:33;;;;;;;2.10;2.00;;;;;;;22.56;88.21;97529.88;5008114;28;20291;-70
2021/09/14 08:38:02;;;;;;;2.23;2.10;;;;;;;22.58;88.28;97522.22;5008454;28;20684;-68
2021/09/14 08:40:28;;;;;;;2.00;1.90;;;;;;;22.57;88.16;97523.94;5009686;28;20241;-71
2021/09/14 08:42:56;;;;;;;2.27;2.07;;;;;;;22.45;88.24;97497.13;5003803;28;20638;-69
2021/09/14 08:45:23;;;;;;;2.10;2.00;;;;;;;22.58;88.48;97519.69;5008190;28;20245;-71
2021/09/14 08:47:50;;;;;;;2.03;1.93;;;;;;;22.57;88.07;97516.28;5008431;28;20261;-70
2021/09/14 08:50:16;;;;;;;1.90;1.80;;;;;;;22.55;88.31;97511.91;5009259;28;20951;-69
2021/09/14 08:52:43;;;;;;;2.53;2.33;;;;;;;22.57;88.55;97516.28;5007796;28;20262;-69
2021/09/14 08:55:10;;;;;;;2.20;2.00;;;;;;;22.53;88.25;97518.72;5009066;28;20710;-69
2021/09/14 08:57:36;;;;;;;1.87;1.77;;;;;;;22.50;88.57;97513.47;5007348;28;20751;-69
2021/09/14 09:00:03;;;;;;;2.23;2.03;;;;;;;22.45;88.17;97505.69;5006946;28;20207;-69
2021/09/14 09:02:30;;;;;;;3.30;2.13;;;;;;;22.57;88.19;97521.38;5007707;28;20703;-71
2021/09/14 09:05:01;;;;;;;1.90;1.80;;;;;;;22.45;88.25;97499.69;5008438;28;20233;-69
2021/09/14 09:07:33;;;;;;;1.80;1.70;;;;;;;22.57;88.23;97516.28;4993188;28;20777;-70
2021/09/14 09:10:10;;;;;;;2.47;2.27;;;;;;;22.57;88.15;97518.81;5008711;28;20202;-72
2021/09/14 09:12:46;;;;;;;2.03;1.93;;;;;;;22.50;88.22;97501.56;5008971;28;20234;-68
2021/09/14 09:15:22;;;;;;;2.20;2.10;;;;;;;22.57;88.22;97513.72;4996980;28;20626;-69
2021/09/14 09:18:10;;;;;;;2.27;2.07;;;;;;;22.57;88.15;97518.81;5008334;28;20230;-69
2021/09/14 09:20:38;;;;;;;2.20;2.00;;;;;;;22.57;88.29;97512.81;5004511;28;20732;-68
2021/09/14 09:23:12;;;;;;;2.20;2.03;;;;;;;22.49;88.39;97497.22;5007583;28;20206;-69
2021/09/14 09:25:39;;;;;;;1.87;1.77;;;;;;;22.58;88.23;97522.22;5004522;28;20209;-70
2021/09/14 09:28:10;;;;;;;2.30;2.10;;;;;;;22.39;88.31;97487.59;5006965;28;20713;-71
2021/09/14 09:30:41;;;;;;;2.00;1.90;;;;;;;22.58;88.32;97514.56;5007424;28;20234;-70
2021/09/14 09:33:10;;;;;;;2.33;2.13;;;;;;;22.47;88.32;97492.91;5000409;28;20305;-72
2021/09/14 09:35:51;;;;;;;2.03;1.93;;;;;;;22.58;88.20;97506.88;4994913;28;20213;-72
2021/09/14 09:38:17;;;;;;;2.60;2.40;;;;;;;22.58;88.36;97504.31;5006615;28;20256;-69
2021/09/14 09:40:44;;;;;;;2.07;1.97;;;;;;;22.57;87.87;97506.03;5008626;28;20206;-67
2021/09/14 09:43:12;;;;;;;2.10;2.00;;;;;;;22.58;88.19;97504.31;5006996;28;20233;-70
2021/09/14 09:45:42;;;;;;;2.10;1.90;;;;;;;22.58;88.27;97509.44;5007133;28;20241;-69
2021/09/14 09:48:09;;;;;;;2.23;2.03;;;;;;;22.29;88.21;97452.34;4999549;28;20284;-72
2021/09/14 09:50:37;;;;;;;2.00;1.90;;;;;;;22.40;88.21;97471.41;5007080;28;20229;-69
2021/09/14 09:53:05;;;;;;;2.30;2.20;;;;;;;22.39;88.28;97469.69;4990445;28;20715;-69
2021/09/14 09:55:33;;;;;;;2.37;2.17;;;;;;;22.58;88.29;97496.63;4990464;28;20213;-72
2021/09/14 09:58:05;;;;;;;2.10;2.00;;;;;;;22.50;88.16;97480.19;5006768;28;20222;-71
2021/09/14 10:00:37;;;;;;;1.90;1.80;;;;;;;22.44;88.25;97474.91;5006598;28;20289;-68
2021/09/14 10:03:06;;;;;;;1.87;1.77;;;;;;;22.58;88.29;97491.50;4994179;28;20444;-71
2021/09/14 10:05:34;;;;;;;2.33;2.13;;;;;;;22.26;88.14;97436.03;4986667;28;21091;-70
2021/09/14 10:08:12;;;;;;;2.33;2.23;;;;;;;22.57;88.32;97479.53;4994039;28;20238;-71
2021/09/14 10:10:39;;;;;;;2.17;2.00;;;;;;;22.50;88.32;97464.81;5006245;28;20671;-70
2021/09/14 10:13:07;;;;;;;1.93;1.83;;;;;;;22.50;88.10;97457.13;5006157;28;20249;-71
2021/09/14 10:15:41;;;;;;;2.23;2.03;;;;;;;22.54;88.40;97467.53;5006338;28;20210;-69
2021/09/14 10:18:08;;;;;;;2.10;2.00;;;;;;;22.38;88.23;97442.31;4986910;28;20668;-71
2021/09/14 10:20:39;;;;;;;1.90;1.80;;;;;;;22.58;88.37;97476.13;4990583;28;20245;-72
2021/09/14 10:23:30;;;;;;;2.00;1.90;;;;;;;22.59;88.26;97470.19;5006442;28;20233;-71
2021/09/14 10:26:04;;;;;;;2.00;1.90;;;;;;;22.54;88.25;97458.97;5000095;28;20900;-70
2021/09/14 10:28:40;;;;;;;2.17;2.07;;;;;;;22.59;88.39;97465.06;5005740;28;20316;-70
2021/09/14 10:31:24;;;;;;;2.27;2.17;;;;;;;22.38;88.17;97426.94;5001538;28;20225;-70
2021/09/14 10:34:04;;;;;;;1.93;1.83;;;;;;;22.48;88.35;97469.03;4990394;28;20746;-71
2021/09/14 10:36:31;;;;;;;2.00;1.90;;;;;;;22.49;88.31;97451.13;4992205;28;20321;-72
2021/09/14 10:38:58;;;;;;;2.03;1.93;;;;;;;22.59;88.20;97462.50;5006764;28;20341;-72
2021/09/14 10:41:38;;;;;;;2.10;2.00;;;;;;;22.48;88.18;97438.28;4990652;28;20237;-71
2021/09/14 10:44:08;;;;;;;2.10;2.00;;;;;;;22.58;88.24;97461.63;4991082;28;20222;-70
2021/09/14 10:46:35;;;;;;;2.20;2.07;;;;;;;22.50;88.06;97444.34;4993125;28;20210;-73
2021/09/14 10:49:12;;;;;;;2.10;1.90;;;;;;;22.51;88.31;97440.97;4996441;28;20238;-72
2021/09/14 10:51:39;;;;;;;1.80;1.70;;;;;;;22.51;88.23;97438.41;4989869;28;20256;-70
2021/09/14 10:54:05;;;;;;;2.00;1.90;;;;;;;22.58;88.30;97460.75;5006852;28;20222;-72
2021/09/14 10:56:32;;;;;;;3.40;2.13;;;;;;;22.50;88.51;97445.22;5006861;28;20230;-70
2021/09/14 10:58:58;;;;;;;2.50;2.00;;;;;;;22.57;88.37;97453.91;5006098;28;20646;-71
2021/09/14 11:01:25;;;;;;;1.90;1.80;;;;;;;22.54;88.31;97447.03;5006747;28;20317;-70
2021/09/14 11:04:05;;;;;;;2.20;2.07;;;;;;;22.58;88.25;97458.19;5005797;28;20277;-71
2021/09/14 11:06:32;;;;;;;2.27;2.07;;;;;;;22.51;88.32;97440.97;5003802;28;20294;-73
2021/09/14 11:09:02;;;;;;;2.10;2.00;;;;;;;22.25;88.25;97391.66;5003498;28;20258;-72
2021/09/14 11:11:29;;;;;;;2.13;2.00;;;;;;;22.58;88.31;97450.50;4989806;28;20221;-71
2021/09/14 11:13:55;;;;;;;1.93;1.83;;;;;;;22.58;88.14;97456.50;5006755;28;20312;-69
2021/09/14 11:16:22;;;;;;;1.97;1.87;;;;;;;22.39;88.22;97415.03;5002420;28;20349;-70
2021/09/14 11:18:49;;;;;;;2.40;2.13;;;;;;;22.51;88.24;97433.28;5001811;28;20249;-72
2021/09/14 11:21:19;;;;;;;1.90;1.80;;;;;;;22.52;88.46;97440.13;5002809;28;20217;-71
2021/09/14 11:23:48;;;;;;;2.27;2.10;;;;;;;22.27;88.42;97394.25;4988708;28;20209;-75
2021/09/14 11:26:16;;;;;;;2.37;2.17;;;;;;;22.51;88.40;97435.84;4994356;28;20463;-74
2021/09/14 11:29:12;;;;;;;2.53;2.33;;;;;;;22.59;88.63;97448.00;4970768;28;20227;-74
2021/09/14 11:31:39;;;;;;;2.97;2.40;;;;;;;22.61;89.58;97442.91;5001444;28;20234;-70
2021/09/14 11:34:06;;;;;;;5.13;2.63;;;;;;;22.54;89.73;97434.22;5012603;28;20253;-71
2021/09/14 11:36:33;;;;;;;2.60;2.40;;;;;;;22.44;90.31;97416.84;4991926;28;20245;-72
2021/09/14 11:39:00;;;;;;;3.90;2.20;;;;;;;22.31;90.34;97396.91;4976759;28;20261;-70
2021/09/14 11:41:34;;;;;;;8.97;2.60;;;;;;;22.55;90.40;97438.50;5009542;28;20237;-70
2021/09/14 11:44:01;;;;;;;11.67;3.10;;;;;;;22.55;90.59;97429.94;5009253;28;20210;-71
2021/09/14 11:46:28;;;;;;;3.10;2.70;;;;;;;22.57;89.77;97436.88;5008945;28;20285;-69
2021/09/14 11:48:58;;;;;;;4.17;2.87;;;;;;;22.63;90.29;97446.38;5007119;22;20250;-67
2021/09/14 11:51:38;;;;;;;7.03;3.23;;;;;;;22.64;90.26;97454.09;4982134;28;20290;-67
2021/09/14 11:54:09;;;;;;;4.80;2.80;;;;;;;22.64;89.97;97450.66;4982701;28;20314;-68
2021/09/14 11:56:35;;;;;;;4.50;2.83;;;;;;;22.64;89.72;97451.53;4988495;28;20313;-67
2021/09/14 11:59:02;;;;;;;3.53;2.83;;;;;;;22.64;89.79;97443.84;4981703;28;20321;-65
2021/09/14 12:01:29;;;;;;;7.67;2.67;;;;;;;22.64;89.67;97438.72;4989453;28;20652;-67
2021/09/14 12:03:56;;;;;;;8.50;2.97;;;;;;;22.64;89.10;97440.41;4990238;28;20695;-65
2021/09/14 12:06:27;;;;;;;3.90;2.90;;;;;;;22.64;89.12;97436.16;4989644;28;20209;-66
2021/09/14 12:09:01;;;;;;;3.13;2.60;;;;;;;22.65;89.00;97437.03;4985871;28;21036;-69
2021/09/14 12:11:32;;;;;;;4.13;2.53;;;;;;;22.64;88.72;97431.03;4988629;28;20661;-68
2021/09/14 12:14:00;;;;;;;3.83;2.43;;;;;;;22.64;88.59;97441.28;4988624;28;20218;-69
2021/09/14 12:16:28;;;;;;;6.27;2.50;;;;;;;22.60;88.69;97434.38;4987342;28;20249;-67
2021/09/14 12:18:58;;;;;;;3.97;2.40;;;;;;;22.66;88.39;97441.31;4986884;28;20644;-68
2021/09/14 12:21:25;;;;;;;3.30;3.00;;;;;;;22.65;88.32;97439.59;4990527;28;20372;-67
2021/09/14 12:23:53;;;;;;;3.83;2.80;;;;;;;22.60;88.40;97431.81;4988948;28;20210;-68
2021/09/14 12:26:21;;;;;;;3.63;2.60;;;;;;;22.65;88.33;97437.88;4988201;28;20294;-66
2021/09/14 12:28:48;;;;;;;4.90;2.70;;;;;;;22.65;88.20;97431.91;4986693;28;20254;-70
2021/09/14 12:31:15;;;;;;;4.13;2.60;;;;;;;22.60;87.96;97415.56;4984544;28;20648;-69